x

Santa Monica Basin - 33nm Wsw Of Santa Monica, Ca (46025) Wave Buoy

6:50am - Tue 21st Oct 2014 All times are PDT. -7 hours from GMT.

  • Sig Wave height 4.9ft
  • Swell Direction
  • Peak Period 13s
  • Average Period 7s
  • Wind
    2mph
  • Sea Temp 70°f
  • 空気 Temp 68°f
  • Sea Pressure 1011.8mb
  • Santa Monica Basin - 33nm Wsw Of Santa Monica, Ca
  • Santa Monica Basin - 33nm Wsw Of Santa Monica, Ca

More Historic Weather Station data

Upgrade to MSW Pro to gain access to the past 30 days of data for over 8000 Wavebouys and Weather Stations around the globe.

Join Pro

Comparision Forecast

View Surf forecast
   
Tue 10/21 6:50am 5ft 13s 7s 2
mph
1011.8mb 70f 68f
5:50am 5ft 15s 7s 4 7 mph 1011.5mb 70f 68f
4:50am 5ft 13s 6s 7 9 mph 1011.6mb 70f 68f
3:50am 5ft 15s 6s 11 13 mph 1011.7mb 70f 68f
2:50am 4.5ft 5s 6s 11 13 mph 1011.8mb 70f 68f
1:50am 4.5ft 7s 6s 7 9 mph 1011.9mb 70f 68f
12:50am 5ft 7s 6s 13 16 mph 1011.9mb 70f 69f
Mon 10/20 11:50pm 5ft 7s 6s 11 16 mph 1012mb 69f 69f
10:50pm 5ft 7s 6s 4 7 mph 1012.1mb 70f 70f
9:50pm 4.5ft 6s 6s  -  2 mph 1012mb 71f 69f
8:50pm 4.5ft 11s 6s 4
mph
1011.5mb 71f 69f
7:50pm 3.5ft 11s 6s 7 9 mph 1011.5mb 71f 68f
6:50pm 3.5ft 9s 6s 7
mph
1011.5mb 72f 68f
5:50pm 4ft 9s 6s 11 13 mph 1011.3mb 72f 67f
4:50pm 4ft 11s 6s 9 11 mph 1011.5mb 72f 67f
3:50pm 3.5ft 9s 6s 4 7 mph 1012mb 72f 68f
2:50pm 3.5ft 11s 6s 2 4 mph 1012.1mb 71f 68f
1:50pm 3.5ft 10s 6s 9
mph
1012.6mb 71f 67f
12:50pm 3.5ft 10s 6s 7 9 mph 1013mb 72f 67f
11:50am 4ft 10s 7s 2 4 mph 1013.8mb 72f 68f
10:50am 4.5ft 11s 7s 2 4 mph 1014.1mb 72f 68f
9:50am 4ft 10s 6s 2 4 mph 1013.6mb 72f 68f
8:50am 4.5ft 10s 7s 2 4 mph 1013.3mb 72f 67f
7:50am 4ft 11s 6s 4 7 mph 1012.4mb 72f 66f
6:50am 4ft 11s 6s 2 4 mph 1011.9mb 72f 66f
5:50am 4.5ft 11s 6s 11 13 mph 1011.8mb 72f 66f
4:50am 5ft 11s 7s 9 11 mph 1011.7mb 72f 67f
3:50am 4.5ft 11s 6s 11 13 mph 1011.5mb 72f 67f
2:50am 4.5ft 11s 6s 9 11 mph 1011.7mb 72f 67f
1:50am 4ft 11s 6s 4 7 mph 1011.8mb 71f 67f
12:50am 4ft 11s 6s 4
mph
1011.6mb 71f 67f
Sun 10/19 11:50pm 4.5ft 11s 7s  -  2 mph 1011.7mb 71f 68f
10:50pm 4ft 11s 7s 2 4 mph 1011.7mb 70f 67f
8:50pm 4ft 11s 7s 13 16 mph 1011mb 70f 67f
7:50pm 4.5ft 11s 7s 9 11 mph 1010.7mb 70f 67f
6:50pm 4ft 12s 7s 13 16 mph 1010.5mb 70f 67f
5:50pm 4.5ft 11s 7s 13 16 mph 1010.2mb 70f 67f
4:50pm 5ft 11s 7s 11 13 mph 1010.2mb 71f 68f
3:50pm 5ft 11s 8s 13 16 mph 1010.8mb 71f 68f
2:50pm 5ft 12s 8s 11 13 mph 1011.3mb 71f 67f
1:50pm 4.5ft 11s 8s 9 11 mph 1011.7mb 71f 67f
12:50pm 5ft 12s 8s 9 11 mph 1012.4mb 70f 68f
11:50am 5ft 11s 8s 7
mph
1012.9mb 70f 68f
10:50am 4.5ft 12s 8s 4 7 mph 1012.8mb 70f 68f
9:50am 5ft 12s 8s  -  2 mph 1012.7mb 70f 68f
8:50am 4.5ft 12s 8s  -  2 mph 1012.4mb 69f 68f
7:50am 4.5ft 11s 7s 2
mph
1011.7mb 69f 67f
6:50am 4.5ft 12s 7s  -  2 mph 1011.2mb 69f 67f
5:50am 4.5ft 11s 7s  -  mph 1011mb 68f 67f
4:50am 5ft 11s 7s  -  2 mph 1010.6mb 68f 67f
3:50am 5ft 11s 7s 4 7 mph 1010.4mb 68f 67f
2:50am 5ft 11s 7s 4
mph
1010.9mb 68f 67f
1:50am 5ft 11s 7s 4
mph
1011.2mb 68f 67f
12:50am 5ft 11s 8s 4 7 mph 1011.2mb 69f 67f
Sat 10/18 11:50pm 5ft 11s 7s 4 7 mph 1011.2mb 69f 67f
10:50pm 5ft 11s 7s 4 7 mph 1011.3mb 70f 68f
9:50pm 5ft 11s 8s 2 4 mph 1011.4mb 70f 69f
8:50pm 5.5ft 12s 8s 4
mph
1011.3mb 71f 69f
7:50pm 5.5ft 11s 8s 7 9 mph 1010.9mb 71f 69f
6:50pm 5.5ft 11s 8s 7 11 mph 1010.4mb 71f 68f
5:50pm 5ft 11s 8s 7 9 mph 1010.2mb 71f 68f
4:50pm 5ft 11s 8s 7 11 mph 1010.4mb 72f 68f
3:50pm 5ft 11s 7s 4 7 mph 1010.7mb 72f 68f
2:50pm 5ft 11s 8s 2 4 mph 1011.1mb 72f 68f
1:50pm 4.5ft 11s 7s 4
mph
1011.7mb 72f 67f
12:50pm 4ft 10s 7s 7
mph
1012.3mb 72f 67f
11:50am 3.5ft 12s 6s 2
mph
1012.9mb 72f 67f
10:50am 3.5ft 11s 6s 2 4 mph 1013.3mb 71f 68f
9:50am 3.5ft 13s 6s 4
mph
1013.5mb 71f 68f
8:50am 3.5ft 13s 6s 2 4 mph 1013.4mb 71f 68f
7:50am 3ft 13s 5s 4 7 mph 1013mb 71f 67f
6:50am 3.5ft 9s 6s 9 11 mph 1012.7mb 71f 67f
5:50am 3.5ft 5s 6s 9 11 mph 1012.5mb 71f 68f
4:50am 4ft 5s 5s 11 13 mph 1012.3mb 71f 67f
3:50am 3.5ft 5s 5s 13 16 mph 1012.4mb 71f 68f
2:50am 3.5ft 9s 5s 13 16 mph 1012.8mb 70f 68f
1:50am 4ft 10s 6s 7 9 mph 1013.5mb 70f 68f
12:50am 3.5ft 5s 6s 4 7 mph 1013.6mb 70f 68f
Fri 10/17 11:50pm 3.5ft 10s 5s 9 11 mph 1013.9mb 70f 68f
10:50pm 3.5ft 14s 6s 7
mph
1014mb 70f 68f
9:50pm 3.5ft 9s 5s 11 13 mph 1014mb 70f 68f
8:50pm 3.5ft 11s 6s 9 11 mph 1013.7mb 69f 68f
7:50pm 4ft 10s 6s 13 16 mph 1013.4mb 70f 68f
6:50pm 4.5ft 11s 6s 13 16 mph 1013.4mb 71f 68f
5:50pm 3.5ft 12s 6s 13 16 mph 1013.2mb 71f 68f
4:50pm 4.5ft 12s 6s 11 13 mph 1013.4mb 71f 68f
3:50pm 4ft 12s 6s 16 20 mph 1013.5mb 71f 68f